sensor_id;sensor_type;location;lat;lon;timestamp;temperature;humidity
33988;DHT22;37428;53.580;-1.666;2023-06-26T00:02:07;15.40;74.90
33988;DHT22;37428;53.580;-1.666;2023-06-26T00:05:11;15.30;74.60
33988;DHT22;37428;53.580;-1.666;2023-06-26T00:08:14;15.20;75.20
33988;DHT22;37428;53.580;-1.666;2023-06-26T00:11:16;15.20;75.60
33988;DHT22;37428;53.580;-1.666;2023-06-26T00:14:18;15.20;75.90
33988;DHT22;37428;53.580;-1.666;2023-06-26T00:17:21;15.10;76.30
33988;DHT22;37428;53.580;-1.666;2023-06-26T00:20:25;15.00;76.70
33988;DHT22;37428;53.580;-1.666;2023-06-26T00:23:27;14.90;77.30
33988;DHT22;37428;53.580;-1.666;2023-06-26T00:26:31;14.90;77.50
33988;DHT22;37428;53.580;-1.666;2023-06-26T00:29:33;14.80;78.00
33988;DHT22;37428;53.580;-1.666;2023-06-26T00:32:36;14.80;78.10
33988;DHT22;37428;53.580;-1.666;2023-06-26T00:35:39;14.70;78.50
33988;DHT22;37428;53.580;-1.666;2023-06-26T00:38:41;14.70;78.90
33988;DHT22;37428;53.580;-1.666;2023-06-26T00:41:43;14.60;78.80
33988;DHT22;37428;53.580;-1.666;2023-06-26T00:44:45;14.70;78.70
33988;DHT22;37428;53.580;-1.666;2023-06-26T00:47:47;14.70;78.90
33988;DHT22;37428;53.580;-1.666;2023-06-26T00:50:51;14.70;79.00
33988;DHT22;37428;53.580;-1.666;2023-06-26T00:53:53;14.80;78.90
33988;DHT22;37428;53.580;-1.666;2023-06-26T00:56:55;14.70;78.90
33988;DHT22;37428;53.580;-1.666;2023-06-26T00:59:58;14.80;79.00
33988;DHT22;37428;53.580;-1.666;2023-06-26T01:03:00;14.70;79.10
33988;DHT22;37428;53.580;-1.666;2023-06-26T01:06:03;14.70;79.80
33988;DHT22;37428;53.580;-1.666;2023-06-26T01:09:06;14.70;79.30
33988;DHT22;37428;53.580;-1.666;2023-06-26T01:12:08;14.70;79.60
33988;DHT22;37428;53.580;-1.666;2023-06-26T01:15:11;14.70;79.60
33988;DHT22;37428;53.580;-1.666;2023-06-26T01:18:13;14.70;80.00
33988;DHT22;37428;53.580;-1.666;2023-06-26T01:21:17;14.70;79.80
33988;DHT22;37428;53.580;-1.666;2023-06-26T01:24:20;14.70;79.80
33988;DHT22;37428;53.580;-1.666;2023-06-26T01:27:30;14.70;79.90
33988;DHT22;37428;53.580;-1.666;2023-06-26T01:30:39;14.60;79.70
33988;DHT22;37428;53.580;-1.666;2023-06-26T01:33:43;14.50;80.20
33988;DHT22;37428;53.580;-1.666;2023-06-26T01:36:45;14.50;80.20
33988;DHT22;37428;53.580;-1.666;2023-06-26T01:39:47;14.50;80.60
33988;DHT22;37428;53.580;-1.666;2023-06-26T01:42:51;14.50;80.80
33988;DHT22;37428;53.580;-1.666;2023-06-26T01:45:56;14.60;80.60
33988;DHT22;37428;53.580;-1.666;2023-06-26T01:49:03;14.60;80.10
33988;DHT22;37428;53.580;-1.666;2023-06-26T01:52:14;14.60;80.40
33988;DHT22;37428;53.580;-1.666;2023-06-26T01:55:23;14.50;80.70
33988;DHT22;37428;53.580;-1.666;2023-06-26T01:58:27;14.50;80.90
33988;DHT22;37428;53.580;-1.666;2023-06-26T02:01:30;14.50;80.70
33988;DHT22;37428;53.580;-1.666;2023-06-26T02:04:34;14.40;81.30
33988;DHT22;37428;53.580;-1.666;2023-06-26T02:07:37;14.40;81.20
33988;DHT22;37428;53.580;-1.666;2023-06-26T02:10:40;14.40;81.40
33988;DHT22;37428;53.580;-1.666;2023-06-26T02:13:43;14.40;81.70
33988;DHT22;37428;53.580;-1.666;2023-06-26T02:16:46;14.40;81.30
33988;DHT22;37428;53.580;-1.666;2023-06-26T02:19:48;14.40;81.80
33988;DHT22;37428;53.580;-1.666;2023-06-26T02:22:50;14.40;81.40
33988;DHT22;37428;53.580;-1.666;2023-06-26T02:25:52;14.40;81.90
33988;DHT22;37428;53.580;-1.666;2023-06-26T02:28:56;14.30;82.10
33988;DHT22;37428;53.580;-1.666;2023-06-26T02:31:58;14.30;82.50
33988;DHT22;37428;53.580;-1.666;2023-06-26T02:35:00;14.40;82.30
33988;DHT22;37428;53.580;-1.666;2023-06-26T02:38:02;14.40;81.80
33988;DHT22;37428;53.580;-1.666;2023-06-26T02:41:05;14.40;81.80
33988;DHT22;37428;53.580;-1.666;2023-06-26T02:44:08;14.40;81.70
33988;DHT22;37428;53.580;-1.666;2023-06-26T02:47:12;14.40;81.80
33988;DHT22;37428;53.580;-1.666;2023-06-26T02:50:14;14.40;81.70
33988;DHT22;37428;53.580;-1.666;2023-06-26T02:53:16;14.40;81.90
33988;DHT22;37428;53.580;-1.666;2023-06-26T02:56:18;14.40;81.80
33988;DHT22;37428;53.580;-1.666;2023-06-26T02:59:22;14.30;82.20
33988;DHT22;37428;53.580;-1.666;2023-06-26T03:02:24;14.40;82.10
33988;DHT22;37428;53.580;-1.666;2023-06-26T03:05:26;14.30;82.30
33988;DHT22;37428;53.580;-1.666;2023-06-26T03:08:28;14.30;82.00
33988;DHT22;37428;53.580;-1.666;2023-06-26T03:11:30;14.30;82.50
33988;DHT22;37428;53.580;-1.666;2023-06-26T03:14:34;14.30;82.60
33988;DHT22;37428;53.580;-1.666;2023-06-26T03:17:36;14.30;83.10
33988;DHT22;37428;53.580;-1.666;2023-06-26T03:20:38;14.30;83.70
33988;DHT22;37428;53.580;-1.666;2023-06-26T03:23:40;14.30;84.00
33988;DHT22;37428;53.580;-1.666;2023-06-26T03:26:42;14.40;84.10
33988;DHT22;37428;53.580;-1.666;2023-06-26T03:29:46;14.40;83.90
33988;DHT22;37428;53.580;-1.666;2023-06-26T03:32:48;14.40;83.80
33988;DHT22;37428;53.580;-1.666;2023-06-26T03:35:50;14.40;83.80
33988;DHT22;37428;53.580;-1.666;2023-06-26T03:38:52;14.40;83.70
33988;DHT22;37428;53.580;-1.666;2023-06-26T03:41:57;14.40;83.90
33988;DHT22;37428;53.580;-1.666;2023-06-26T03:45:03;14.40;83.80
33988;DHT22;37428;53.580;-1.666;2023-06-26T03:48:05;14.40;83.20
33988;DHT22;37428;53.580;-1.666;2023-06-26T03:51:08;14.40;83.20
33988;DHT22;37428;53.580;-1.666;2023-06-26T03:54:11;14.30;83.20
33988;DHT22;37428;53.580;-1.666;2023-06-26T03:57:13;14.20;83.30
33988;DHT22;37428;53.580;-1.666;2023-06-26T04:00:17;14.20;83.50
33988;DHT22;37428;53.580;-1.666;2023-06-26T04:03:19;14.20;83.80
33988;DHT22;37428;53.580;-1.666;2023-06-26T04:06:21;14.10;83.50
33988;DHT22;37428;53.580;-1.666;2023-06-26T04:09:23;14.20;84.00
33988;DHT22;37428;53.580;-1.666;2023-06-26T04:12:25;14.20;83.60
33988;DHT22;37428;53.580;-1.666;2023-06-26T04:15:29;14.30;83.80
33988;DHT22;37428;53.580;-1.666;2023-06-26T04:18:31;14.30;83.50
33988;DHT22;37428;53.580;-1.666;2023-06-26T04:21:33;14.30;83.90
33988;DHT22;37428;53.580;-1.666;2023-06-26T04:24:35;14.30;83.80
33988;DHT22;37428;53.580;-1.666;2023-06-26T04:27:37;14.30;83.70
33988;DHT22;37428;53.580;-1.666;2023-06-26T04:30:40;14.30;83.80
33988;DHT22;37428;53.580;-1.666;2023-06-26T04:33:43;14.30;83.80
33988;DHT22;37428;53.580;-1.666;2023-06-26T04:36:45;14.40;83.50
33988;DHT22;37428;53.580;-1.666;2023-06-26T04:39:48;14.40;83.40
33988;DHT22;37428;53.580;-1.666;2023-06-26T04:42:50;14.40;83.30
33988;DHT22;37428;53.580;-1.666;2023-06-26T04:45:54;14.30;83.10
33988;DHT22;37428;53.580;-1.666;2023-06-26T04:48:56;14.20;82.80
33988;DHT22;37428;53.580;-1.666;2023-06-26T04:51:59;14.30;82.70
33988;DHT22;37428;53.580;-1.666;2023-06-26T04:55:01;14.30;82.90
33988;DHT22;37428;53.580;-1.666;2023-06-26T04:58:03;14.30;82.90
33988;DHT22;37428;53.580;-1.666;2023-06-26T05:01:07;14.40;82.70
33988;DHT22;37428;53.580;-1.666;2023-06-26T05:04:11;14.40;83.20
33988;DHT22;37428;53.580;-1.666;2023-06-26T05:07:13;14.40;82.90
33988;DHT22;37428;53.580;-1.666;2023-06-26T05:10:15;14.50;82.90
33988;DHT22;37428;53.580;-1.666;2023-06-26T05:13:18;14.50;82.50
33988;DHT22;37428;53.580;-1.666;2023-06-26T05:16:21;14.60;82.00
33988;DHT22;37428;53.580;-1.666;2023-06-26T05:19:24;14.60;82.20
33988;DHT22;37428;53.580;-1.666;2023-06-26T05:22:26;14.60;81.90
33988;DHT22;37428;53.580;-1.666;2023-06-26T05:25:28;14.70;82.10
33988;DHT22;37428;53.580;-1.666;2023-06-26T05:28:31;14.80;81.90
33988;DHT22;37428;53.580;-1.666;2023-06-26T05:31:34;14.90;81.30
33988;DHT22;37428;53.580;-1.666;2023-06-26T05:34:42;15.00;80.60
33988;DHT22;37428;53.580;-1.666;2023-06-26T05:37:44;14.90;80.20
33988;DHT22;37428;53.580;-1.666;2023-06-26T05:40:46;15.00;80.30
33988;DHT22;37428;53.580;-1.666;2023-06-26T05:43:49;15.00;80.10
33988;DHT22;37428;53.580;-1.666;2023-06-26T05:46:52;15.10;79.90
33988;DHT22;37428;53.580;-1.666;2023-06-26T05:49:55;15.30;79.90
33988;DHT22;37428;53.580;-1.666;2023-06-26T05:52:58;15.40;79.20
33988;DHT22;37428;53.580;-1.666;2023-06-26T05:56:00;15.50;79.00
33988;DHT22;37428;53.580;-1.666;2023-06-26T05:59:03;15.50;78.20
33988;DHT22;37428;53.580;-1.666;2023-06-26T06:02:08;15.60;77.50
33988;DHT22;37428;53.580;-1.666;2023-06-26T06:05:10;15.70;77.70
33988;DHT22;37428;53.580;-1.666;2023-06-26T06:08:12;15.70;77.10
33988;DHT22;37428;53.580;-1.666;2023-06-26T06:11:14;15.80;76.60
33988;DHT22;37428;53.580;-1.666;2023-06-26T06:14:17;16.00;76.50
33988;DHT22;37428;53.580;-1.666;2023-06-26T06:17:20;16.10;76.60
33988;DHT22;37428;53.580;-1.666;2023-06-26T06:20:22;16.30;75.60
33988;DHT22;37428;53.580;-1.666;2023-06-26T06:23:24;16.30;75.50
33988;DHT22;37428;53.580;-1.666;2023-06-26T06:26:26;16.40;74.20
33988;DHT22;37428;53.580;-1.666;2023-06-26T06:29:29;16.50;73.80
33988;DHT22;37428;53.580;-1.666;2023-06-26T06:32:33;16.60;74.00
33988;DHT22;37428;53.580;-1.666;2023-06-26T06:35:35;16.60;72.60
33988;DHT22;37428;53.580;-1.666;2023-06-26T06:38:37;16.50;71.60
33988;DHT22;37428;53.580;-1.666;2023-06-26T06:41:39;16.50;71.90
33988;DHT22;37428;53.580;-1.666;2023-06-26T06:44:41;16.60;72.60
33988;DHT22;37428;53.580;-1.666;2023-06-26T06:47:45;16.80;72.10
33988;DHT22;37428;53.580;-1.666;2023-06-26T06:50:47;16.90;70.40
33988;DHT22;37428;53.580;-1.666;2023-06-26T06:53:49;17.00;70.40
33988;DHT22;37428;53.580;-1.666;2023-06-26T06:56:51;17.10;69.50
33988;DHT22;37428;53.580;-1.666;2023-06-26T06:59:53;17.20;68.80
33988;DHT22;37428;53.580;-1.666;2023-06-26T07:02:57;17.50;69.40
33988;DHT22;37428;53.580;-1.666;2023-06-26T07:06:01;17.50;68.30
33988;DHT22;37428;53.580;-1.666;2023-06-26T07:09:04;17.60;67.60
33988;DHT22;37428;53.580;-1.666;2023-06-26T07:12:07;17.70;67.10
33988;DHT22;37428;53.580;-1.666;2023-06-26T07:15:09;17.70;66.40
33988;DHT22;37428;53.580;-1.666;2023-06-26T07:18:13;17.90;66.30
33988;DHT22;37428;53.580;-1.666;2023-06-26T07:21:15;18.00;66.30
33988;DHT22;37428;53.580;-1.666;2023-06-26T07:24:17;18.00;65.20
33988;DHT22;37428;53.580;-1.666;2023-06-26T07:27:20;18.00;64.10
33988;DHT22;37428;53.580;-1.666;2023-06-26T07:30:22;18.20;63.80
33988;DHT22;37428;53.580;-1.666;2023-06-26T07:33:25;18.10;63.10
33988;DHT22;37428;53.580;-1.666;2023-06-26T07:36:28;18.10;63.10
33988;DHT22;37428;53.580;-1.666;2023-06-26T07:39:30;18.20;62.60
33988;DHT22;37428;53.580;-1.666;2023-06-26T07:42:32;19.00;61.40
33988;DHT22;37428;53.580;-1.666;2023-06-26T07:45:34;18.80;61.50
33988;DHT22;37428;53.580;-1.666;2023-06-26T07:48:37;18.90;61.60
33988;DHT22;37428;53.580;-1.666;2023-06-26T07:51:39;19.20;60.60
33988;DHT22;37428;53.580;-1.666;2023-06-26T07:54:41;19.40;59.60
33988;DHT22;37428;53.580;-1.666;2023-06-26T07:57:43;18.90;58.90
33988;DHT22;37428;53.580;-1.666;2023-06-26T08:00:46;19.10;58.80
33988;DHT22;37428;53.580;-1.666;2023-06-26T08:03:49;19.30;58.00
33988;DHT22;37428;53.580;-1.666;2023-06-26T08:06:53;19.50;57.30
33988;DHT22;37428;53.580;-1.666;2023-06-26T08:09:55;19.70;56.90
33988;DHT22;37428;53.580;-1.666;2023-06-26T08:12:57;19.90;56.60
33988;DHT22;37428;53.580;-1.666;2023-06-26T08:15:59;20.10;54.40
33988;DHT22;37428;53.580;-1.666;2023-06-26T08:19:02;20.00;51.90
33988;DHT22;37428;53.580;-1.666;2023-06-26T08:22:05;20.20;51.50
33988;DHT22;37428;53.580;-1.666;2023-06-26T08:25:07;20.40;52.20
33988;DHT22;37428;53.580;-1.666;2023-06-26T08:28:09;20.10;52.50
33988;DHT22;37428;53.580;-1.666;2023-06-26T08:31:12;19.80;53.80
33988;DHT22;37428;53.580;-1.666;2023-06-26T08:34:15;19.30;54.50
33988;DHT22;37428;53.580;-1.666;2023-06-26T08:37:17;18.80;55.60
33988;DHT22;37428;53.580;-1.666;2023-06-26T08:40:20;18.60;56.70
33988;DHT22;37428;53.580;-1.666;2023-06-26T08:43:22;19.20;57.70
33988;DHT22;37428;53.580;-1.666;2023-06-26T08:46:25;19.80;56.10
33988;DHT22;37428;53.580;-1.666;2023-06-26T08:49:37;20.00;53.60
33988;DHT22;37428;53.580;-1.666;2023-06-26T08:52:43;20.20;52.80
33988;DHT22;37428;53.580;-1.666;2023-06-26T08:55:49;20.40;52.30
33988;DHT22;37428;53.580;-1.666;2023-06-26T08:58:54;20.60;50.00
33988;DHT22;37428;53.580;-1.666;2023-06-26T09:01:56;20.70;51.00
33988;DHT22;37428;53.580;-1.666;2023-06-26T09:04:59;21.00;51.90
33988;DHT22;37428;53.580;-1.666;2023-06-26T09:08:02;21.30;49.90
33988;DHT22;37428;53.580;-1.666;2023-06-26T09:11:04;21.30;49.80
33988;DHT22;37428;53.580;-1.666;2023-06-26T09:14:06;21.60;50.70
33988;DHT22;37428;53.580;-1.666;2023-06-26T09:17:10;21.50;49.80
33988;DHT22;37428;53.580;-1.666;2023-06-26T09:20:15;21.50;48.90
33988;DHT22;37428;53.580;-1.666;2023-06-26T09:23:17;21.70;48.60
33988;DHT22;37428;53.580;-1.666;2023-06-26T09:26:21;21.70;47.70
33988;DHT22;37428;53.580;-1.666;2023-06-26T09:29:23;21.80;48.70
33988;DHT22;37428;53.580;-1.666;2023-06-26T09:32:27;22.00;47.20
33988;DHT22;37428;53.580;-1.666;2023-06-26T09:35:30;22.10;46.80
33988;DHT22;37428;53.580;-1.666;2023-06-26T09:38:34;21.80;46.70
33988;DHT22;37428;53.580;-1.666;2023-06-26T09:41:37;22.00;47.20
33988;DHT22;37428;53.580;-1.666;2023-06-26T09:44:43;22.10;45.40
33988;DHT22;37428;53.580;-1.666;2023-06-26T09:47:46;22.20;46.30
33988;DHT22;37428;53.580;-1.666;2023-06-26T09:50:49;22.60;46.50
33988;DHT22;37428;53.580;-1.666;2023-06-26T09:53:51;22.90;44.50
33988;DHT22;37428;53.580;-1.666;2023-06-26T09:56:55;23.10;43.80
33988;DHT22;37428;53.580;-1.666;2023-06-26T09:59:58;22.50;44.20
33988;DHT22;37428;53.580;-1.666;2023-06-26T10:03:00;22.50;45.40
33988;DHT22;37428;53.580;-1.666;2023-06-26T10:06:04;22.70;44.60
33988;DHT22;37428;53.580;-1.666;2023-06-26T10:09:07;21.90;44.50
33988;DHT22;37428;53.580;-1.666;2023-06-26T10:12:15;22.40;46.10
33988;DHT22;37428;53.580;-1.666;2023-06-26T10:15:23;22.90;46.40
33988;DHT22;37428;53.580;-1.666;2023-06-26T10:18:27;23.10;44.30
33988;DHT22;37428;53.580;-1.666;2023-06-26T10:21:34;23.30;42.50
33988;DHT22;37428;53.580;-1.666;2023-06-26T10:24:41;23.60;43.70
33988;DHT22;37428;53.580;-1.666;2023-06-26T10:27:47;23.70;43.20
33988;DHT22;37428;53.580;-1.666;2023-06-26T10:30:51;24.10;43.00
33988;DHT22;37428;53.580;-1.666;2023-06-26T10:33:54;23.70;41.10
33988;DHT22;37428;53.580;-1.666;2023-06-26T10:37:01;22.90;43.70
33988;DHT22;37428;53.580;-1.666;2023-06-26T10:40:05;22.30;43.50
33988;DHT22;37428;53.580;-1.666;2023-06-26T10:43:09;21.60;44.20
33988;DHT22;37428;53.580;-1.666;2023-06-26T10:46:11;21.00;46.20
33988;DHT22;37428;53.580;-1.666;2023-06-26T10:49:17;20.80;46.40
33988;DHT22;37428;53.580;-1.666;2023-06-26T10:52:21;20.70;47.70
33988;DHT22;37428;53.580;-1.666;2023-06-26T10:55:27;21.10;47.50
33988;DHT22;37428;53.580;-1.666;2023-06-26T10:58:31;21.90;46.30
33988;DHT22;37428;53.580;-1.666;2023-06-26T11:01:40;22.10;45.50
33988;DHT22;37428;53.580;-1.666;2023-06-26T11:04:45;22.40;46.80
33988;DHT22;37428;53.580;-1.666;2023-06-26T11:08:04;23.10;43.80
33988;DHT22;37428;53.580;-1.666;2023-06-26T11:11:06;23.10;42.80
33988;DHT22;37428;53.580;-1.666;2023-06-26T11:14:08;23.50;43.40
33988;DHT22;37428;53.580;-1.666;2023-06-26T11:17:11;23.60;41.40
33988;DHT22;37428;53.580;-1.666;2023-06-26T11:20:15;23.90;42.40
33988;DHT22;37428;53.580;-1.666;2023-06-26T11:23:22;24.20;40.20
33988;DHT22;37428;53.580;-1.666;2023-06-26T11:26:27;24.30;39.70
33988;DHT22;37428;53.580;-1.666;2023-06-26T11:29:30;24.40;40.20
33988;DHT22;37428;53.580;-1.666;2023-06-26T11:32:32;24.30;40.70
33988;DHT22;37428;53.580;-1.666;2023-06-26T11:35:34;24.50;40.30
33988;DHT22;37428;53.580;-1.666;2023-06-26T11:38:38;24.50;39.80
33988;DHT22;37428;53.580;-1.666;2023-06-26T11:41:41;24.20;40.00
33988;DHT22;37428;53.580;-1.666;2023-06-26T11:44:43;23.60;40.30
33988;DHT22;37428;53.580;-1.666;2023-06-26T11:47:45;23.10;39.10
33988;DHT22;37428;53.580;-1.666;2023-06-26T11:50:50;23.10;39.30
33988;DHT22;37428;53.580;-1.666;2023-06-26T11:53:54;23.00;39.20
33988;DHT22;37428;53.580;-1.666;2023-06-26T11:56:57;23.30;40.10
33988;DHT22;37428;53.580;-1.666;2023-06-26T12:00:11;23.00;40.50
33988;DHT22;37428;53.580;-1.666;2023-06-26T12:03:13;22.50;42.10
33988;DHT22;37428;53.580;-1.666;2023-06-26T12:06:16;22.10;42.70
33988;DHT22;37428;53.580;-1.666;2023-06-26T12:09:19;21.90;44.80
33988;DHT22;37428;53.580;-1.666;2023-06-26T12:12:22;21.70;44.80
33988;DHT22;37428;53.580;-1.666;2023-06-26T12:15:24;21.80;45.10
33988;DHT22;37428;53.580;-1.666;2023-06-26T12:18:34;22.30;44.50
33988;DHT22;37428;53.580;-1.666;2023-06-26T12:21:47;23.10;41.50
33988;DHT22;37428;53.580;-1.666;2023-06-26T12:24:56;23.70;40.40
33988;DHT22;37428;53.580;-1.666;2023-06-26T12:27:59;23.90;40.60
33988;DHT22;37428;53.580;-1.666;2023-06-26T12:31:20;24.30;41.60
33988;DHT22;37428;53.580;-1.666;2023-06-26T12:34:28;24.80;40.30
33988;DHT22;37428;53.580;-1.666;2023-06-26T12:37:36;24.70;38.40
33988;DHT22;37428;53.580;-1.666;2023-06-26T12:40:46;24.70;37.40
33988;DHT22;37428;53.580;-1.666;2023-06-26T12:43:48;24.20;36.90
33988;DHT22;37428;53.580;-1.666;2023-06-26T12:46:54;23.60;38.70
33988;DHT22;37428;53.580;-1.666;2023-06-26T12:49:56;23.40;39.40
33988;DHT22;37428;53.580;-1.666;2023-06-26T12:52:59;23.30;40.50
33988;DHT22;37428;53.580;-1.666;2023-06-26T12:56:02;23.90;39.20
33988;DHT22;37428;53.580;-1.666;2023-06-26T12:59:04;24.10;38.40
33988;DHT22;37428;53.580;-1.666;2023-06-26T13:02:07;24.40;36.00
33988;DHT22;37428;53.580;-1.666;2023-06-26T13:05:09;24.40;35.20
33988;DHT22;37428;53.580;-1.666;2023-06-26T13:08:11;24.50;36.60
33988;DHT22;37428;53.580;-1.666;2023-06-26T13:11:14;25.00;37.60
33988;DHT22;37428;53.580;-1.666;2023-06-26T13:14:17;24.80;37.40
33988;DHT22;37428;53.580;-1.666;2023-06-26T13:17:19;24.30;35.20
33988;DHT22;37428;53.580;-1.666;2023-06-26T13:20:21;24.50;36.00
33988;DHT22;37428;53.580;-1.666;2023-06-26T13:23:23;25.10;37.20
33988;DHT22;37428;53.580;-1.666;2023-06-26T13:26:27;24.80;36.30
33988;DHT22;37428;53.580;-1.666;2023-06-26T13:29:30;24.00;37.20
33988;DHT22;37428;53.580;-1.666;2023-06-26T13:32:32;23.60;37.40
33988;DHT22;37428;53.580;-1.666;2023-06-26T13:35:34;23.10;38.70
33988;DHT22;37428;53.580;-1.666;2023-06-26T13:38:37;23.10;39.70
33988;DHT22;37428;53.580;-1.666;2023-06-26T13:41:40;22.80;40.60
33988;DHT22;37428;53.580;-1.666;2023-06-26T13:44:42;22.60;41.80
33988;DHT22;37428;53.580;-1.666;2023-06-26T13:47:44;22.40;42.90
33988;DHT22;37428;53.580;-1.666;2023-06-26T13:50:47;22.20;42.50
33988;DHT22;37428;53.580;-1.666;2023-06-26T13:53:49;22.30;42.30
33988;DHT22;37428;53.580;-1.666;2023-06-26T13:56:52;22.50;41.40
33988;DHT22;37428;53.580;-1.666;2023-06-26T13:59:58;23.20;40.10
33988;DHT22;37428;53.580;-1.666;2023-06-26T14:03:00;23.50;39.50
33988;DHT22;37428;53.580;-1.666;2023-06-26T14:06:03;23.60;39.00
33988;DHT22;37428;53.580;-1.666;2023-06-26T14:09:05;23.70;37.60
33988;DHT22;37428;53.580;-1.666;2023-06-26T14:12:09;24.00;39.00
33988;DHT22;37428;53.580;-1.666;2023-06-26T14:15:11;24.40;38.30
33988;DHT22;37428;53.580;-1.666;2023-06-26T14:18:13;24.80;37.90
33988;DHT22;37428;53.580;-1.666;2023-06-26T14:21:15;25.20;37.40
33988;DHT22;37428;53.580;-1.666;2023-06-26T14:24:17;25.40;36.30
33988;DHT22;37428;53.580;-1.666;2023-06-26T14:27:21;25.50;35.60
33988;DHT22;37428;53.580;-1.666;2023-06-26T14:30:23;25.60;35.30
33988;DHT22;37428;53.580;-1.666;2023-06-26T14:33:25;25.80;34.90
33988;DHT22;37428;53.580;-1.666;2023-06-26T14:36:27;25.50;35.80
33988;DHT22;37428;53.580;-1.666;2023-06-26T14:39:31;25.30;35.30
33988;DHT22;37428;53.580;-1.666;2023-06-26T14:42:35;25.00;34.70
33988;DHT22;37428;53.580;-1.666;2023-06-26T14:45:37;25.10;34.80
33988;DHT22;37428;53.580;-1.666;2023-06-26T14:48:39;25.30;35.30
33988;DHT22;37428;53.580;-1.666;2023-06-26T14:51:41;25.20;35.00
33988;DHT22;37428;53.580;-1.666;2023-06-26T14:54:43;25.20;35.80
33988;DHT22;37428;53.580;-1.666;2023-06-26T14:57:46;25.20;34.90
33988;DHT22;37428;53.580;-1.666;2023-06-26T15:00:48;25.60;36.00
33988;DHT22;37428;53.580;-1.666;2023-06-26T15:03:50;25.60;35.90
33988;DHT22;37428;53.580;-1.666;2023-06-26T15:06:52;25.70;34.90
33988;DHT22;37428;53.580;-1.666;2023-06-26T15:09:55;25.70;36.10
33988;DHT22;37428;53.580;-1.666;2023-06-26T15:12:58;25.70;35.50
33988;DHT22;37428;53.580;-1.666;2023-06-26T15:16:00;25.90;33.80
33988;DHT22;37428;53.580;-1.666;2023-06-26T15:19:02;25.80;34.30
33988;DHT22;37428;53.580;-1.666;2023-06-26T15:22:05;25.90;35.40
33988;DHT22;37428;53.580;-1.666;2023-06-26T15:25:07;25.70;34.80
33988;DHT22;37428;53.580;-1.666;2023-06-26T15:28:11;25.60;34.90
33988;DHT22;37428;53.580;-1.666;2023-06-26T15:31:13;25.40;36.00
33988;DHT22;37428;53.580;-1.666;2023-06-26T15:34:15;25.10;36.50
33988;DHT22;37428;53.580;-1.666;2023-06-26T15:37:17;25.10;36.90
33988;DHT22;37428;53.580;-1.666;2023-06-26T15:40:19;25.30;36.20
33988;DHT22;37428;53.580;-1.666;2023-06-26T15:43:22;25.50;36.40
33988;DHT22;37428;53.580;-1.666;2023-06-26T15:46:24;25.80;36.00
33988;DHT22;37428;53.580;-1.666;2023-06-26T15:49:27;25.30;35.20
33988;DHT22;37428;53.580;-1.666;2023-06-26T15:52:29;25.30;36.60
33988;DHT22;37428;53.580;-1.666;2023-06-26T15:55:31;25.30;36.40
33988;DHT22;37428;53.580;-1.666;2023-06-26T15:58:34;25.40;36.50
33988;DHT22;37428;53.580;-1.666;2023-06-26T16:01:42;25.30;36.10
33988;DHT22;37428;53.580;-1.666;2023-06-26T16:04:44;25.30;36.30
33988;DHT22;37428;53.580;-1.666;2023-06-26T16:07:46;24.80;34.80
33988;DHT22;37428;53.580;-1.666;2023-06-26T16:10:48;24.80;35.80
33988;DHT22;37428;53.580;-1.666;2023-06-26T16:13:52;24.30;36.00
33988;DHT22;37428;53.580;-1.666;2023-06-26T16:16:55;24.40;35.90
33988;DHT22;37428;53.580;-1.666;2023-06-26T16:19:57;24.40;35.60
33988;DHT22;37428;53.580;-1.666;2023-06-26T16:22:59;24.40;36.70
33988;DHT22;37428;53.580;-1.666;2023-06-26T16:26:01;24.40;37.80
33988;DHT22;37428;53.580;-1.666;2023-06-26T16:29:05;24.30;36.80
33988;DHT22;37428;53.580;-1.666;2023-06-26T16:32:07;24.40;37.50
33988;DHT22;37428;53.580;-1.666;2023-06-26T16:35:09;24.30;37.30
33988;DHT22;37428;53.580;-1.666;2023-06-26T16:38:12;24.10;38.30
33988;DHT22;37428;53.580;-1.666;2023-06-26T16:41:14;24.00;38.40
33988;DHT22;37428;53.580;-1.666;2023-06-26T16:44:17;23.90;38.20
33988;DHT22;37428;53.580;-1.666;2023-06-26T16:47:19;23.80;38.50
33988;DHT22;37428;53.580;-1.666;2023-06-26T16:50:21;23.80;39.00
33988;DHT22;37428;53.580;-1.666;2023-06-26T16:53:23;23.50;38.40
33988;DHT22;37428;53.580;-1.666;2023-06-26T16:56:26;23.40;39.00
33988;DHT22;37428;53.580;-1.666;2023-06-26T16:59:29;23.10;38.60
33988;DHT22;37428;53.580;-1.666;2023-06-26T17:02:31;22.90;39.10
33988;DHT22;37428;53.580;-1.666;2023-06-26T17:05:33;22.70;40.20
33988;DHT22;37428;53.580;-1.666;2023-06-26T17:08:36;22.50;39.70
33988;DHT22;37428;53.580;-1.666;2023-06-26T17:11:38;22.20;40.20
33988;DHT22;37428;53.580;-1.666;2023-06-26T17:14:43;22.20;40.60
33988;DHT22;37428;53.580;-1.666;2023-06-26T17:17:45;22.00;41.80
33988;DHT22;37428;53.580;-1.666;2023-06-26T17:20:47;22.00;42.20
33988;DHT22;37428;53.580;-1.666;2023-06-26T17:23:49;21.80;43.00
33988;DHT22;37428;53.580;-1.666;2023-06-26T17:26:51;21.80;43.40
33988;DHT22;37428;53.580;-1.666;2023-06-26T17:29:55;21.80;43.80
33988;DHT22;37428;53.580;-1.666;2023-06-26T17:32:58;21.80;44.00
33988;DHT22;37428;53.580;-1.666;2023-06-26T17:36:00;21.60;44.20
33988;DHT22;37428;53.580;-1.666;2023-06-26T17:39:02;21.50;43.90
33988;DHT22;37428;53.580;-1.666;2023-06-26T17:42:06;21.30;44.30
33988;DHT22;37428;53.580;-1.666;2023-06-26T17:45:10;21.30;44.60
33988;DHT22;37428;53.580;-1.666;2023-06-26T17:48:13;21.30;45.00
33988;DHT22;37428;53.580;-1.666;2023-06-26T17:51:15;21.30;44.60
33988;DHT22;37428;53.580;-1.666;2023-06-26T17:54:18;21.20;44.70
33988;DHT22;37428;53.580;-1.666;2023-06-26T17:57:20;21.00;45.90
33988;DHT22;37428;53.580;-1.666;2023-06-26T18:00:24;21.00;45.90
33988;DHT22;37428;53.580;-1.666;2023-06-26T18:03:26;20.80;46.50
33988;DHT22;37428;53.580;-1.666;2023-06-26T18:06:28;20.70;47.10
33988;DHT22;37428;53.580;-1.666;2023-06-26T18:09:31;20.70;47.70
33988;DHT22;37428;53.580;-1.666;2023-06-26T18:12:33;20.60;47.50
33988;DHT22;37428;53.580;-1.666;2023-06-26T18:15:37;20.60;46.90
33988;DHT22;37428;53.580;-1.666;2023-06-26T18:18:39;20.50;47.70
33988;DHT22;37428;53.580;-1.666;2023-06-26T18:21:41;20.20;47.60
33988;DHT22;37428;53.580;-1.666;2023-06-26T18:24:43;20.10;48.50
33988;DHT22;37428;53.580;-1.666;2023-06-26T18:27:45;19.90;49.80
33988;DHT22;37428;53.580;-1.666;2023-06-26T18:30:49;19.90;49.80
33988;DHT22;37428;53.580;-1.666;2023-06-26T18:33:52;19.80;50.30
33988;DHT22;37428;53.580;-1.666;2023-06-26T18:36:54;19.80;50.20
33988;DHT22;37428;53.580;-1.666;2023-06-26T18:39:57;19.80;50.50
33988;DHT22;37428;53.580;-1.666;2023-06-26T18:42:59;19.90;51.00
33988;DHT22;37428;53.580;-1.666;2023-06-26T18:46:03;19.90;51.00
33988;DHT22;37428;53.580;-1.666;2023-06-26T18:49:05;19.90;50.90
33988;DHT22;37428;53.580;-1.666;2023-06-26T18:52:07;19.80;50.20
33988;DHT22;37428;53.580;-1.666;2023-06-26T18:55:10;19.70;50.60
33988;DHT22;37428;53.580;-1.666;2023-06-26T18:58:12;19.70;50.50